createdAt,value
2023-01-20T00:01:26.725Z,15.98
2023-01-20T00:03:55.015Z,16.02
2023-01-20T00:06:22.697Z,17.55
2023-01-20T00:08:53.844Z,16.10
2023-01-20T00:11:21.091Z,18.17
2023-01-20T00:13:47.947Z,16.88
2023-01-20T00:16:14.723Z,16.17
2023-01-20T00:18:41.646Z,18.17
2023-01-20T00:21:11.567Z,15.48
2023-01-20T00:23:39.048Z,17.52
2023-01-20T00:26:07.532Z,15.85
2023-01-20T00:28:35.074Z,17.48
2023-01-20T00:31:16.815Z,18.63
2023-01-20T00:33:44.114Z,16.98
2023-01-20T00:36:12.115Z,16.92
2023-01-20T00:38:39.453Z,17.48
2023-01-20T00:41:07.048Z,17.10
2023-01-20T00:43:33.843Z,16.48
2023-01-20T00:46:00.883Z,17.92
2023-01-20T00:48:27.609Z,18.40
2023-01-20T00:50:54.298Z,18.90
2023-01-20T00:53:21.273Z,18.33
2023-01-20T00:55:48.061Z,15.88
2023-01-20T00:58:14.751Z,16.95
2023-01-20T01:00:41.506Z,17.10
2023-01-20T01:03:10.167Z,17.77
2023-01-20T01:05:37.657Z,16.50
2023-01-20T01:08:04.817Z,14.80
2023-01-20T01:10:32.154Z,17.15
2023-01-20T01:13:00.392Z,16.75
2023-01-20T01:15:27.858Z,16.90
2023-01-20T01:17:55.475Z,16.77
2023-01-20T01:20:22.163Z,15.52
2023-01-20T01:22:48.987Z,16.55
2023-01-20T01:25:15.848Z,15.63
2023-01-20T01:27:43.216Z,14.10
2023-01-20T01:30:10.658Z,15.80
2023-01-20T01:32:37.416Z,15.70
2023-01-20T01:35:04.392Z,15.38
2023-01-20T01:37:31.133Z,15.35
2023-01-20T01:39:57.753Z,16.00
2023-01-20T01:42:26.316Z,16.73
2023-01-20T01:45:11.406Z,15.00
2023-01-20T01:47:40.004Z,15.43
2023-01-20T01:50:10.166Z,16.67
2023-01-20T01:52:38.012Z,16.50
2023-01-20T01:55:05.200Z,17.92
2023-01-20T01:57:32.380Z,16.00
2023-01-20T01:59:59.082Z,15.80
2023-01-20T02:02:26.015Z,13.50
2023-01-20T02:04:52.753Z,16.17
2023-01-20T02:07:21.482Z,16.67
2023-01-20T02:09:48.161Z,17.23
2023-01-20T02:12:19.763Z,16.83
2023-01-20T02:14:50.589Z,15.55
2023-01-20T02:17:31.932Z,16.17
2023-01-20T02:20:35.799Z,16.40
2023-01-20T02:23:14.544Z,17.02
2023-01-20T02:26:06.159Z,16.48
2023-01-20T02:28:35.968Z,17.05
2023-01-20T02:31:34.767Z,17.10
2023-01-20T02:34:10.776Z,16.85
2023-01-20T02:36:48.078Z,14.98
2023-01-20T02:39:34.724Z,15.07
2023-01-20T02:42:18.987Z,16.75
2023-01-20T02:44:55.563Z,15.48
2023-01-20T02:47:53.591Z,16.67
2023-01-20T02:50:25.759Z,16.52
2023-01-20T02:52:56.600Z,15.85
2023-01-20T02:55:46.116Z,15.10
2023-01-20T02:58:23.392Z,15.15
2023-01-20T03:01:00.972Z,15.57
2023-01-20T03:03:33.844Z,14.18
2023-01-20T03:06:03.884Z,14.95
2023-01-20T03:08:33.004Z,13.07
2023-01-20T03:11:04.963Z,13.18
2023-01-20T03:13:46.214Z,12.30
2023-01-20T03:16:18.116Z,13.05
2023-01-20T03:18:45.063Z,15.10
2023-01-20T03:21:13.279Z,13.73
2023-01-20T03:23:46.680Z,12.55
2023-01-20T03:26:16.382Z,14.30
2023-01-20T03:28:45.197Z,13.57
2023-01-20T03:31:19.906Z,15.02
2023-01-20T03:33:49.022Z,14.27
2023-01-20T03:36:18.275Z,15.27
2023-01-20T03:38:46.017Z,15.43
2023-01-20T03:41:34.748Z,15.82
2023-01-20T03:44:16.738Z,15.77
2023-01-20T03:46:52.789Z,16.55
2023-01-20T03:49:37.150Z,17.48
2023-01-20T03:52:16.365Z,16.17
2023-01-20T03:54:50.685Z,16.30
2023-01-20T03:57:22.830Z,18.25
2023-01-20T04:02:18.149Z,19.08
2023-01-20T04:04:47.519Z,17.70
2023-01-20T04:07:20.470Z,18.63
2023-01-20T04:09:54.833Z,18.05
2023-01-20T04:12:21.724Z,20.17
2023-01-20T04:14:48.376Z,20.30
2023-01-20T04:17:15.563Z,19.45
2023-01-20T04:19:42.232Z,19.42
2023-01-20T04:22:27.830Z,19.30
2023-01-20T04:24:59.813Z,19.67
2023-01-20T04:27:26.436Z,19.58
2023-01-20T04:29:53.109Z,21.90
2023-01-20T04:32:19.826Z,20.73
2023-01-20T04:34:46.496Z,21.17
2023-01-20T04:37:13.191Z,21.15
2023-01-20T04:39:39.905Z,20.63
2023-01-20T04:42:06.564Z,20.55
2023-01-20T04:44:33.381Z,21.23
2023-01-20T04:47:00.105Z,19.58
2023-01-20T04:49:26.860Z,21.45
2023-01-20T04:51:53.503Z,20.95
2023-01-20T04:54:20.460Z,21.77
2023-01-20T04:56:50.164Z,22.63
2023-01-20T04:59:16.875Z,20.63
2023-01-20T05:01:43.628Z,23.67
2023-01-20T05:04:10.756Z,23.05
2023-01-20T05:06:37.529Z,22.15
2023-01-20T05:09:04.390Z,20.55
2023-01-20T05:11:31.051Z,21.65
2023-01-20T05:13:57.907Z,23.15
2023-01-20T05:16:25.961Z,20.60
2023-01-20T05:18:53.941Z,22.63
2023-01-20T05:21:20.588Z,22.10
2023-01-20T05:23:47.233Z,22.05
2023-01-20T05:26:13.968Z,22.30
2023-01-20T05:28:42.077Z,22.80
2023-01-20T05:31:09.147Z,21.73
2023-01-20T05:33:36.571Z,23.38
2023-01-20T05:36:07.771Z,23.30
2023-01-20T05:38:34.550Z,22.13
2023-01-20T05:41:01.967Z,21.52
2023-01-20T05:43:28.699Z,19.83
2023-01-20T05:45:55.628Z,22.13
2023-01-20T05:48:22.395Z,22.55
2023-01-20T05:50:49.038Z,20.52
2023-01-20T05:53:16.361Z,21.35
2023-01-20T05:55:43.248Z,20.63
2023-01-20T05:58:10.360Z,20.38
2023-01-20T06:00:37.304Z,21.60
2023-01-20T06:03:04.458Z,21.08
2023-01-20T06:05:34.603Z,19.83
2023-01-20T06:08:04.863Z,21.00
2023-01-20T06:10:31.790Z,21.13
2023-01-20T06:12:58.616Z,20.45
2023-01-20T06:15:39.588Z,21.13
2023-01-20T06:18:06.479Z,20.90
2023-01-20T06:20:33.378Z,22.60
2023-01-20T06:23:00.041Z,20.98
2023-01-20T06:25:26.743Z,22.48
2023-01-20T06:27:53.441Z,22.42
2023-01-20T06:30:20.172Z,22.42
2023-01-20T06:32:50.742Z,21.73
2023-01-20T06:35:17.543Z,19.48
2023-01-20T06:37:44.257Z,20.17
2023-01-20T06:40:11.850Z,20.77
2023-01-20T06:42:38.626Z,20.38
2023-01-20T06:45:05.734Z,20.73
2023-01-20T06:47:32.557Z,20.95
2023-01-20T06:49:59.231Z,21.02
2023-01-20T06:52:26.452Z,21.30
2023-01-20T06:54:53.156Z,20.88
2023-01-20T06:57:19.825Z,21.20
2023-01-20T06:59:46.460Z,23.63
2023-01-20T07:02:13.238Z,19.35
2023-01-20T07:04:40.220Z,22.60
2023-01-20T07:07:06.907Z,21.23
2023-01-20T07:09:33.573Z,22.08
2023-01-20T07:12:00.211Z,22.20
2023-01-20T07:14:26.920Z,21.00
2023-01-20T07:16:53.764Z,19.98
2023-01-20T07:19:20.486Z,20.13
2023-01-20T07:21:47.172Z,19.95
2023-01-20T07:24:13.828Z,19.88
2023-01-20T07:26:40.545Z,23.10
2023-01-20T07:29:07.204Z,20.60
2023-01-20T07:31:34.345Z,21.05
2023-01-20T07:34:01.139Z,21.38
2023-01-20T07:36:28.042Z,20.73
2023-01-20T07:38:54.986Z,21.05
2023-01-20T07:41:22.411Z,20.85
2023-01-20T07:43:51.035Z,21.38
2023-01-20T07:46:19.001Z,21.02
2023-01-20T07:48:46.261Z,21.55
2023-01-20T07:51:14.867Z,19.92
2023-01-20T07:53:47.092Z,19.58
2023-01-20T07:56:33.007Z,21.40
2023-01-20T07:58:59.784Z,21.05
2023-01-20T08:01:29.058Z,22.23
2023-01-20T08:03:56.301Z,21.65
2023-01-20T08:06:25.452Z,21.17
2023-01-20T08:08:52.606Z,21.02
2023-01-20T08:11:21.317Z,20.67
2023-01-20T08:13:48.206Z,19.65
2023-01-20T08:16:16.874Z,19.83
2023-01-20T08:18:44.357Z,20.50
2023-01-20T08:21:37.514Z,19.98
2023-01-20T08:24:06.466Z,20.45
2023-01-20T08:26:34.118Z,18.10
2023-01-20T08:29:09.964Z,21.65
2023-01-20T08:31:37.428Z,20.33
2023-01-20T08:34:04.780Z,20.90
2023-01-20T08:36:34.652Z,19.33
2023-01-20T08:39:03.667Z,22.27
2023-01-20T08:41:33.814Z,20.65
2023-01-20T08:44:02.244Z,20.33
2023-01-20T08:46:29.017Z,20.77
2023-01-20T08:48:56.184Z,20.52
2023-01-20T08:51:31.451Z,20.30
2023-01-20T08:53:59.380Z,21.00
2023-01-20T08:56:26.679Z,21.17
2023-01-20T08:58:54.010Z,20.77
2023-01-20T09:01:27.550Z,21.02
2023-01-20T09:04:05.522Z,19.40
2023-01-20T09:06:42.527Z,21.17
2023-01-20T09:09:10.131Z,18.45
2023-01-20T09:11:36.986Z,20.48
2023-01-20T09:14:03.784Z,20.33
2023-01-20T09:16:30.527Z,19.83
2023-01-20T09:18:57.238Z,20.77
2023-01-20T09:21:24.019Z,19.92
2023-01-20T09:23:51.159Z,21.27
2023-01-20T09:26:34.185Z,20.73
2023-01-20T09:29:09.240Z,20.13
2023-01-20T09:31:38.414Z,21.77
2023-01-20T09:34:05.389Z,20.52
2023-01-20T09:36:32.063Z,20.33
2023-01-20T09:39:17.352Z,22.58
2023-01-20T09:42:06.720Z,21.40
2023-01-20T09:44:50.297Z,18.83
2023-01-20T09:47:30.967Z,21.10
2023-01-20T09:50:41.942Z,20.70
2023-01-20T09:53:34.420Z,20.55
2023-01-20T09:58:40.334Z,20.27
2023-01-20T10:01:19.291Z,19.45
2023-01-20T10:03:53.568Z,19.63
2023-01-20T10:06:31.725Z,20.50
2023-01-20T10:09:06.667Z,18.83
2023-01-20T10:11:46.322Z,19.48
2023-01-20T10:14:29.594Z,19.05
2023-01-20T10:17:04.645Z,19.63
2023-01-20T10:19:49.895Z,16.98
2023-01-20T10:22:25.946Z,18.33
2023-01-20T10:25:06.367Z,18.02
2023-01-20T10:27:36.027Z,17.40
2023-01-20T10:30:11.564Z,17.00
2023-01-20T10:32:47.353Z,15.45
2023-01-20T10:35:19.695Z,16.73
2023-01-20T10:37:46.442Z,17.38
2023-01-20T10:40:16.724Z,16.05
2023-01-20T10:42:49.698Z,17.20
2023-01-20T10:45:27.113Z,14.73
2023-01-20T10:48:32.191Z,14.30
2023-01-20T10:51:19.011Z,15.82
2023-01-20T10:53:58.425Z,16.70
2023-01-20T10:56:36.341Z,17.55
2023-01-20T10:59:17.940Z,15.32
2023-01-20T11:01:56.279Z,15.75
2023-01-20T11:04:26.493Z,15.27
2023-01-20T11:06:57.316Z,15.73
2023-01-20T11:09:34.351Z,16.75
2023-01-20T11:12:04.809Z,15.65
2023-01-20T11:14:31.918Z,17.65
2023-01-20T11:17:12.935Z,15.52
2023-01-20T11:19:54.799Z,14.20
2023-01-20T11:22:33.275Z,15.40
2023-01-20T11:25:01.704Z,12.40
2023-01-20T11:27:43.877Z,13.52
2023-01-20T11:30:27.923Z,13.52
2023-01-20T11:33:09.205Z,14.38
2023-01-20T11:35:36.075Z,12.50
2023-01-20T11:38:30.996Z,13.25
2023-01-20T11:40:57.946Z,11.90
2023-01-20T11:43:29.171Z,12.45
2023-01-20T11:46:23.586Z,12.32
2023-01-20T11:48:50.609Z,11.30
2023-01-20T11:51:25.578Z,12.15
2023-01-20T11:54:13.643Z,11.18
2023-01-20T11:56:43.804Z,9.77
2023-01-20T11:59:27.849Z,10.57
2023-01-20T12:02:19.347Z,8.65
2023-01-20T12:05:04.784Z,8.67
2023-01-20T12:07:47.212Z,6.90
2023-01-20T12:10:18.933Z,6.85
2023-01-20T12:12:51.459Z,8.32
2023-01-20T12:15:33.410Z,8.38
2023-01-20T12:18:09.683Z,9.68
2023-01-20T12:20:53.580Z,9.57
2023-01-20T12:23:45.742Z,8.48
2023-01-20T12:26:21.119Z,8.55
2023-01-20T12:29:06.696Z,7.60
2023-01-20T12:31:33.883Z,8.38
2023-01-20T12:34:27.849Z,7.95
2023-01-20T12:37:17.983Z,7.15
2023-01-20T12:40:21.987Z,7.30
2023-01-20T12:43:17.116Z,7.32
2023-01-20T12:45:59.583Z,9.18
2023-01-20T12:48:46.075Z,8.10
2023-01-20T12:51:18.763Z,7.60
2023-01-20T12:54:06.700Z,6.90
2023-01-20T12:57:00.442Z,6.85
2023-01-20T12:59:47.126Z,7.80
2023-01-20T13:02:18.465Z,7.50
2023-01-20T13:05:22.143Z,8.35
2023-01-20T13:08:02.159Z,7.35
2023-01-20T13:10:35.048Z,7.13
2023-01-20T13:13:32.650Z,7.38
2023-01-20T13:16:34.409Z,7.40
2023-01-20T13:19:06.710Z,7.07
2023-01-20T13:21:34.687Z,7.38
2023-01-20T13:24:04.347Z,7.28
2023-01-20T13:26:32.508Z,7.97
2023-01-20T13:29:00.506Z,6.80
2023-01-20T13:31:51.009Z,6.95
2023-01-20T13:34:24.223Z,7.35
2023-01-20T13:37:25.322Z,7.18
2023-01-20T13:39:54.236Z,7.07
2023-01-20T13:42:29.417Z,7.07
2023-01-20T13:45:11.496Z,7.05
2023-01-20T13:48:08.281Z,6.40
2023-01-20T13:50:37.406Z,6.30
2023-01-20T13:53:15.009Z,5.88
2023-01-20T13:55:41.810Z,6.30
2023-01-20T13:58:20.783Z,5.22
2023-01-20T14:01:02.604Z,6.45
2023-01-20T14:03:35.061Z,5.18
2023-01-20T14:06:07.139Z,6.25
2023-01-20T14:11:24.340Z,5.78
2023-01-20T14:13:54.120Z,5.57
2023-01-20T14:16:26.742Z,5.13
2023-01-20T14:19:13.633Z,6.05
2023-01-20T14:21:41.763Z,5.40
2023-01-20T14:24:26.756Z,5.97
2023-01-20T14:27:11.207Z,5.75
2023-01-20T14:29:39.569Z,6.68
2023-01-20T14:32:38.784Z,5.93
2023-01-20T14:35:17.931Z,6.13
2023-01-20T14:37:50.279Z,5.05
2023-01-20T14:43:01.667Z,4.32
2023-01-20T14:45:31.857Z,5.07
2023-01-20T14:48:01.801Z,5.47
2023-01-20T14:50:29.088Z,5.68
2023-01-20T14:52:56.203Z,6.93
2023-01-20T14:55:44.310Z,6.72
2023-01-20T14:58:18.739Z,6.78
2023-01-20T15:00:54.516Z,6.80
2023-01-20T15:03:28.613Z,7.00
2023-01-20T15:05:59.608Z,6.70
2023-01-20T15:08:32.474Z,7.20
2023-01-20T15:11:24.137Z,7.28
2023-01-20T15:14:05.778Z,6.55
2023-01-20T15:16:59.416Z,7.97
2023-01-20T15:19:33.621Z,7.47
2023-01-20T15:22:23.130Z,7.82
2023-01-20T15:24:50.797Z,8.82
2023-01-20T15:27:27.014Z,8.88
2023-01-20T15:30:21.640Z,7.68
2023-01-20T15:32:49.034Z,8.70
2023-01-20T15:35:19.714Z,8.20
2023-01-20T15:37:46.777Z,8.38
2023-01-20T15:40:24.706Z,8.50
2023-01-20T15:42:51.760Z,8.48
2023-01-20T15:45:18.734Z,8.77
2023-01-20T15:47:46.736Z,8.38
2023-01-20T15:50:22.583Z,8.30
2023-01-20T15:52:49.448Z,9.35
2023-01-20T15:55:18.101Z,10.07
2023-01-20T15:57:46.995Z,13.07
2023-01-20T16:00:19.394Z,18.40
2023-01-20T16:02:46.263Z,16.83
2023-01-20T16:05:15.769Z,43.63
2023-01-20T16:07:44.252Z,24.45
2023-01-20T16:10:16.865Z,14.23
2023-01-20T16:12:44.791Z,10.82
2023-01-20T16:15:16.987Z,11.07
2023-01-20T16:17:43.992Z,10.60
2023-01-20T16:20:18.344Z,10.57
2023-01-20T16:22:45.154Z,10.63
2023-01-20T16:25:11.938Z,9.88
2023-01-20T16:27:38.668Z,9.93
2023-01-20T16:30:12.919Z,9.70
2023-01-20T16:32:39.945Z,10.77
2023-01-20T16:35:06.973Z,11.05
2023-01-20T16:37:33.649Z,9.77
2023-01-20T16:40:00.466Z,10.85
2023-01-20T16:42:27.178Z,11.75
2023-01-20T16:44:54.003Z,11.68
2023-01-20T16:47:20.684Z,10.05
2023-01-20T16:49:47.358Z,9.50
2023-01-20T16:52:14.017Z,9.50
2023-01-20T16:54:40.659Z,9.02
2023-01-20T16:57:08.353Z,10.43
2023-01-20T16:59:35.332Z,10.00
2023-01-20T17:02:02.064Z,9.38
2023-01-20T17:04:29.525Z,11.07
2023-01-20T17:06:56.354Z,9.65
2023-01-20T17:09:23.009Z,10.98
2023-01-20T17:11:49.672Z,10.35
2023-01-20T17:14:16.354Z,9.80
2023-01-20T17:16:43.094Z,9.80
2023-01-20T17:19:10.265Z,9.80
2023-01-20T17:21:39.125Z,10.80
2023-01-20T17:24:06.444Z,11.55
2023-01-20T17:26:33.138Z,9.75
2023-01-20T17:29:03.391Z,9.25
2023-01-20T17:31:33.064Z,10.80
2023-01-20T17:34:00.015Z,11.35
2023-01-20T17:36:26.812Z,10.70
2023-01-20T17:38:53.699Z,10.98
2023-01-20T17:41:20.559Z,10.45
2023-01-20T17:43:47.256Z,12.57
2023-01-20T17:46:20.257Z,13.35
2023-01-20T17:48:47.436Z,14.15
2023-01-20T17:51:25.073Z,12.70
2023-01-20T17:53:52.229Z,14.25
2023-01-20T17:56:21.135Z,13.07
2023-01-20T17:58:49.017Z,12.60
2023-01-20T18:01:18.270Z,11.65
2023-01-20T18:03:46.318Z,10.63
2023-01-20T18:06:15.068Z,11.18
2023-01-20T18:08:42.870Z,11.80
2023-01-20T18:11:21.682Z,11.10
2023-01-20T18:13:49.955Z,9.73
2023-01-20T18:16:18.737Z,10.45
2023-01-20T18:18:46.808Z,11.25
2023-01-20T18:21:16.711Z,11.77
2023-01-20T18:23:44.349Z,13.93
2023-01-20T18:26:13.733Z,13.25
2023-01-20T18:28:41.478Z,13.27
2023-01-20T18:31:11.491Z,14.20
2023-01-20T18:33:44.101Z,14.00
2023-01-20T18:36:14.894Z,11.70
2023-01-20T18:38:44.566Z,11.50
2023-01-20T18:41:13.256Z,12.68
2023-01-20T18:43:40.971Z,10.93
2023-01-20T18:46:08.926Z,11.50
2023-01-20T18:48:39.995Z,11.48
2023-01-20T18:51:10.129Z,11.20
2023-01-20T18:53:37.253Z,10.82
2023-01-20T18:56:07.009Z,10.95
2023-01-20T18:58:35.225Z,13.52
2023-01-20T19:01:13.115Z,11.98
2023-01-20T19:03:40.442Z,11.85
2023-01-20T19:06:12.487Z,12.32
2023-01-20T19:08:41.432Z,13.23
2023-01-20T19:11:15.557Z,12.77
2023-01-20T19:13:43.537Z,14.30
2023-01-20T19:16:12.741Z,14.38
2023-01-20T19:18:44.580Z,11.95
2023-01-20T19:21:14.803Z,13.70
2023-01-20T19:23:42.720Z,13.32
2023-01-20T19:26:12.325Z,13.00
2023-01-20T19:28:40.190Z,12.88
2023-01-20T19:31:12.930Z,13.02
2023-01-20T19:33:40.065Z,12.15
2023-01-20T19:36:10.744Z,13.52
2023-01-20T19:38:38.131Z,13.77
2023-01-20T19:41:10.810Z,13.10
2023-01-20T19:43:37.585Z,12.05
2023-01-20T19:46:07.169Z,13.40
2023-01-20T19:48:34.085Z,15.05
2023-01-20T19:51:12.945Z,13.90
2023-01-20T19:53:40.082Z,15.27
2023-01-20T19:56:12.272Z,14.95
2023-01-20T20:01:10.466Z,12.63
2023-01-20T20:03:37.690Z,13.00
2023-01-20T20:06:06.063Z,13.73
2023-01-20T20:08:33.680Z,14.60
2023-01-20T20:11:00.386Z,14.07
2023-01-20T20:13:27.028Z,16.00
2023-01-20T20:16:02.268Z,16.38
2023-01-20T20:18:28.984Z,17.20
2023-01-20T20:20:56.131Z,16.52
2023-01-20T20:23:23.392Z,17.33
2023-01-20T20:25:57.717Z,14.60
2023-01-20T20:28:25.675Z,16.38
2023-01-20T20:30:55.603Z,16.73
2023-01-20T20:33:26.623Z,15.68
2023-01-20T20:35:53.777Z,15.80
2023-01-20T20:38:20.838Z,16.83
2023-01-20T20:40:47.871Z,16.67
2023-01-20T20:43:14.921Z,17.55
2023-01-20T20:45:42.069Z,17.20
2023-01-20T20:48:10.346Z,15.82
2023-01-20T20:50:38.208Z,16.65
2023-01-20T20:53:05.262Z,17.52
2023-01-20T20:55:32.317Z,17.58
2023-01-20T20:57:59.465Z,16.38
2023-01-20T21:00:28.351Z,17.15
2023-01-20T21:02:56.144Z,16.48
2023-01-20T21:05:23.570Z,17.63
2023-01-20T21:07:53.095Z,17.42
2023-01-20T21:10:28.826Z,17.80
2023-01-20T21:13:13.121Z,16.63
2023-01-20T21:15:43.815Z,17.13
2023-01-20T21:18:11.091Z,16.20
2023-01-20T21:20:39.572Z,16.65
2023-01-20T21:23:08.949Z,16.23
2023-01-20T21:25:36.012Z,16.27
2023-01-20T21:28:03.139Z,16.98
2023-01-20T21:30:30.220Z,16.48
2023-01-20T21:32:57.134Z,15.50
2023-01-20T21:35:24.387Z,14.55
2023-01-20T21:37:55.231Z,14.30
2023-01-20T21:40:22.677Z,13.52
2023-01-20T21:42:53.718Z,13.82
2023-01-20T21:45:20.887Z,14.15
2023-01-20T21:47:50.075Z,13.88
2023-01-20T21:50:35.957Z,14.73
2023-01-20T21:53:03.023Z,14.18
2023-01-20T21:55:30.254Z,15.95
2023-01-20T21:57:57.619Z,14.80
2023-01-20T22:00:24.872Z,15.68
2023-01-20T22:02:52.221Z,15.80
2023-01-20T22:05:19.469Z,19.23
2023-01-20T22:07:48.000Z,19.58
2023-01-20T22:10:15.491Z,19.15
2023-01-20T22:16:26.988Z,17.08
2023-01-20T22:19:10.861Z,16.80
2023-01-20T22:21:39.168Z,14.93
2023-01-20T22:24:08.796Z,15.15
2023-01-20T22:26:35.519Z,16.63
2023-01-20T22:29:02.301Z,14.73
2023-01-20T22:31:30.148Z,14.77
2023-01-20T22:33:58.426Z,15.95
2023-01-20T22:36:25.254Z,15.73
2023-01-20T22:38:54.356Z,17.70
2023-01-20T22:41:21.713Z,15.63
2023-01-20T22:43:50.515Z,16.40
2023-01-20T22:46:19.544Z,15.57
2023-01-20T22:48:46.856Z,16.67
2023-01-20T22:51:18.380Z,15.82
2023-01-20T22:53:45.479Z,17.40
2023-01-20T22:56:14.816Z,17.02
2023-01-20T22:58:42.481Z,18.05
2023-01-20T23:01:13.720Z,18.52
2023-01-20T23:03:42.214Z,15.75
2023-01-20T23:06:09.857Z,21.20
2023-01-20T23:08:36.663Z,17.13
2023-01-20T23:11:09.518Z,15.10
2023-01-20T23:13:36.584Z,15.05
2023-01-20T23:16:04.763Z,14.43
2023-01-20T23:18:32.396Z,14.35
2023-01-20T23:20:59.893Z,13.57
2023-01-20T23:23:27.299Z,13.82
2023-01-20T23:26:06.117Z,13.57
2023-01-20T23:28:33.615Z,13.18
2023-01-20T23:31:05.154Z,13.27
2023-01-20T23:33:32.521Z,15.43
2023-01-20T23:36:06.686Z,16.45
2023-01-20T23:38:33.594Z,16.08
2023-01-20T23:41:00.640Z,16.30
2023-01-20T23:43:27.400Z,16.90
2023-01-20T23:45:57.584Z,15.90
2023-01-20T23:48:24.411Z,15.00
2023-01-20T23:50:51.723Z,15.45
2023-01-20T23:53:18.619Z,15.82
2023-01-20T23:55:45.588Z,15.90
2023-01-20T23:58:12.346Z,16.02
